createdAt,value
2018-12-27T00:01:26.771Z,4.55
2018-12-27T00:03:55.124Z,2.72
2018-12-27T00:06:23.106Z,3.17
2018-12-27T00:08:51.144Z,3.35
2018-12-27T00:11:19.148Z,3.05
2018-12-27T00:13:47.157Z,3.17
2018-12-27T00:16:15.131Z,3.37
2018-12-27T00:18:43.176Z,3.27
2018-12-27T00:21:11.505Z,3.22
2018-12-27T00:23:39.898Z,2.55
2018-12-27T00:26:08.040Z,2.77
2018-12-27T00:28:36.053Z,3.37
2018-12-27T00:31:04.313Z,3.17
2018-12-27T00:33:32.203Z,3.45
2018-12-27T00:35:59.985Z,2.97
2018-12-27T00:38:27.985Z,2.95
2018-12-27T00:40:55.774Z,3.72
2018-12-27T00:43:24.068Z,3.22
2018-12-27T00:45:51.925Z,2.83
2018-12-27T00:48:19.690Z,2.30
2018-12-27T00:50:47.647Z,3.65
2018-12-27T00:53:15.543Z,3.10
2018-12-27T00:55:43.589Z,3.17
2018-12-27T00:58:11.950Z,2.95
2018-12-27T01:00:39.832Z,3.40
2018-12-27T01:03:11.229Z,3.83
2018-12-27T01:05:38.353Z,3.40
2018-12-27T01:08:06.445Z,3.15
2018-12-27T01:10:34.452Z,2.90
2018-12-27T01:13:02.262Z,3.33
2018-12-27T01:15:30.219Z,3.65
2018-12-27T01:17:58.111Z,3.37
2018-12-27T01:20:26.126Z,3.50
2018-12-27T01:22:54.033Z,3.37
2018-12-27T01:25:22.287Z,3.75
2018-12-27T01:27:50.064Z,3.67
2018-12-27T01:30:17.842Z,3.77
2018-12-27T01:32:45.513Z,3.83
2018-12-27T01:35:13.215Z,3.72
2018-12-27T01:37:41.724Z,3.52
2018-12-27T01:40:09.729Z,3.80
2018-12-27T01:42:37.482Z,3.58
2018-12-27T01:45:05.796Z,3.02
2018-12-27T01:47:33.553Z,2.83
2018-12-27T01:50:02.422Z,3.58
2018-12-27T01:52:30.162Z,3.12
2018-12-27T01:54:57.963Z,3.12
2018-12-27T01:57:25.990Z,2.87
2018-12-27T01:59:53.992Z,2.77
2018-12-27T02:02:21.627Z,3.08
2018-12-27T02:04:49.281Z,4.15
2018-12-27T02:07:17.374Z,2.62
2018-12-27T02:09:45.249Z,3.67
2018-12-27T02:12:13.183Z,3.25
2018-12-27T02:14:41.218Z,2.95
2018-12-27T02:17:09.114Z,3.30
2018-12-27T02:19:37.370Z,3.08
2018-12-27T02:22:05.776Z,3.22
2018-12-27T02:24:33.846Z,4.03
2018-12-27T02:27:01.870Z,3.67
2018-12-27T02:29:30.142Z,3.30
2018-12-27T02:31:58.324Z,2.60
2018-12-27T02:34:26.312Z,3.67
2018-12-27T02:36:54.494Z,3.08
2018-12-27T02:39:22.648Z,3.05
2018-12-27T02:41:50.541Z,4.15
2018-12-27T02:44:18.834Z,3.22
2018-12-27T02:46:46.618Z,3.50
2018-12-27T02:49:15.017Z,2.80
2018-12-27T02:51:43.094Z,3.15
2018-12-27T02:54:11.290Z,3.15
2018-12-27T02:56:39.336Z,3.42
2018-12-27T02:59:07.347Z,3.25
2018-12-27T03:01:35.370Z,2.83
2018-12-27T03:04:03.299Z,3.58
2018-12-27T03:06:31.337Z,2.65
2018-12-27T03:08:59.094Z,3.02
2018-12-27T03:11:27.367Z,3.37
2018-12-27T03:13:55.385Z,3.65
2018-12-27T03:16:23.289Z,3.70
2018-12-27T03:18:51.299Z,4.08
2018-12-27T03:21:19.224Z,3.67
2018-12-27T03:23:48.352Z,4.17
2018-12-27T03:26:16.626Z,3.50
2018-12-27T03:28:44.535Z,3.98
2018-12-27T03:31:12.433Z,4.33
2018-12-27T03:33:40.659Z,4.08
2018-12-27T03:36:08.580Z,3.85
2018-12-27T03:38:36.694Z,3.95
2018-12-27T03:41:04.720Z,3.65
2018-12-27T03:43:33.911Z,3.67
2018-12-27T03:46:04.925Z,3.15
2018-12-27T03:48:32.934Z,3.87
2018-12-27T03:51:00.999Z,5.15
2018-12-27T03:53:29.454Z,4.22
2018-12-27T03:55:57.627Z,3.77
2018-12-27T03:58:25.614Z,3.70
2018-12-27T04:00:54.042Z,3.70
2018-12-27T04:03:21.979Z,4.63
2018-12-27T04:05:50.069Z,4.62
2018-12-27T04:08:18.065Z,4.80
2018-12-27T04:10:46.108Z,3.87
2018-12-27T04:13:14.290Z,4.10
2018-12-27T04:15:42.297Z,2.77
2018-12-27T04:18:10.306Z,3.17
2018-12-27T04:20:38.643Z,3.37
2018-12-27T04:23:06.987Z,3.67
2018-12-27T04:25:35.625Z,4.00
2018-12-27T04:28:04.189Z,3.05
2018-12-27T04:30:32.894Z,3.40
2018-12-27T04:33:08.709Z,4.33
2018-12-27T04:35:36.877Z,3.77
2018-12-27T04:38:04.872Z,3.62
2018-12-27T04:40:33.191Z,4.15
2018-12-27T04:43:01.969Z,3.87
2018-12-27T04:45:29.982Z,3.70
2018-12-27T04:47:58.393Z,4.60
2018-12-27T04:50:26.813Z,4.72
2018-12-27T04:52:55.183Z,4.12
2018-12-27T04:55:23.191Z,3.98
2018-12-27T04:57:51.255Z,3.47
2018-12-27T05:00:19.287Z,3.55
2018-12-27T05:02:47.313Z,4.53
2018-12-27T05:05:15.316Z,3.77
2018-12-27T05:07:44.309Z,4.15
2018-12-27T05:10:12.304Z,3.70
2018-12-27T05:12:40.326Z,4.15
2018-12-27T05:15:08.322Z,3.60
2018-12-27T05:17:36.720Z,3.87
2018-12-27T05:20:04.813Z,3.52
2018-12-27T05:22:33.042Z,3.83
2018-12-27T05:25:01.628Z,3.30
2018-12-27T05:27:30.029Z,4.28
2018-12-27T05:29:58.868Z,3.80
2018-12-27T05:32:26.923Z,3.00
2018-12-27T05:34:54.948Z,3.75
2018-12-27T05:37:22.974Z,3.45
2018-12-27T05:39:50.998Z,3.77
2018-12-27T05:42:19.783Z,3.22
2018-12-27T05:44:47.800Z,3.42
2018-12-27T05:47:16.144Z,4.00
2018-12-27T05:49:44.507Z,4.75
2018-12-27T05:52:30.054Z,4.05
2018-12-27T05:54:58.489Z,4.15
2018-12-27T05:57:26.640Z,3.42
2018-12-27T05:59:55.005Z,4.83
2018-12-27T06:02:23.207Z,3.30
2018-12-27T06:04:51.777Z,3.35
2018-12-27T06:07:19.814Z,3.20
2018-12-27T06:09:47.819Z,3.40
2018-12-27T06:12:15.849Z,3.62
2018-12-27T06:14:44.501Z,3.08
2018-12-27T06:17:12.547Z,3.33
2018-12-27T06:19:40.568Z,2.80
2018-12-27T06:22:08.933Z,3.90
2018-12-27T06:24:37.027Z,3.83
2018-12-27T06:27:05.068Z,3.80
2018-12-27T06:29:33.360Z,4.33
2018-12-27T06:32:02.265Z,4.35
2018-12-27T06:34:33.252Z,3.70
2018-12-27T06:37:01.269Z,3.33
2018-12-27T06:39:29.585Z,2.95
2018-12-27T06:41:59.412Z,3.40
2018-12-27T06:44:27.921Z,3.95
2018-12-27T06:46:55.953Z,3.47
2018-12-27T06:49:24.022Z,3.92
2018-12-27T06:51:52.023Z,4.03
2018-12-27T06:54:20.044Z,3.62
2018-12-27T06:56:48.073Z,3.40
2018-12-27T06:59:16.466Z,3.27
2018-12-27T07:01:44.432Z,4.25
2018-12-27T07:04:12.461Z,3.60
2018-12-27T07:06:40.483Z,5.08
2018-12-27T07:09:08.521Z,7.12
2018-12-27T07:11:36.857Z,4.10
2018-12-27T07:14:07.225Z,6.10
2018-12-27T07:16:35.279Z,4.92
2018-12-27T07:19:03.689Z,4.85
2018-12-27T07:21:31.697Z,4.22
2018-12-27T07:23:59.714Z,3.50
2018-12-27T07:26:28.048Z,3.62
2018-12-27T07:28:56.133Z,4.00
2018-12-27T07:31:24.182Z,3.77
2018-12-27T07:33:52.191Z,4.35
2018-12-27T07:36:20.214Z,4.40
2018-12-27T07:38:48.255Z,3.92
2018-12-27T07:41:16.954Z,3.95
2018-12-27T07:43:44.967Z,3.75
2018-12-27T07:46:12.985Z,2.35
2018-12-27T07:48:41.013Z,4.40
2018-12-27T07:51:09.027Z,4.42
2018-12-27T07:53:37.039Z,4.30
2018-12-27T07:56:05.808Z,4.55
2018-12-27T07:58:33.811Z,3.95
2018-12-27T08:01:02.188Z,3.67
2018-12-27T08:03:30.225Z,3.95
2018-12-27T08:05:58.238Z,3.60
2018-12-27T08:08:26.293Z,4.92
2018-12-27T08:10:54.601Z,3.77
2018-12-27T08:13:22.623Z,3.30
2018-12-27T08:15:51.743Z,2.60
2018-12-27T08:18:19.893Z,3.62
2018-12-27T08:20:47.901Z,3.20
2018-12-27T08:23:16.130Z,4.65
2018-12-27T08:25:44.137Z,3.42
2018-12-27T08:28:12.185Z,3.37
2018-12-27T08:30:40.557Z,4.03
2018-12-27T08:33:08.591Z,3.65
2018-12-27T08:35:36.695Z,4.22
2018-12-27T08:38:06.565Z,4.70
2018-12-27T08:40:36.400Z,4.10
2018-12-27T08:43:04.424Z,3.58
2018-12-27T08:45:32.949Z,4.75
2018-12-27T08:48:02.824Z,3.90
2018-12-27T08:50:31.168Z,3.10
2018-12-27T08:52:59.185Z,4.47
2018-12-27T08:55:27.485Z,2.80
2018-12-27T08:57:55.514Z,3.40
2018-12-27T09:00:23.923Z,3.30
2018-12-27T09:02:51.932Z,3.27
2018-12-27T09:05:20.265Z,3.83
2018-12-27T09:07:48.286Z,3.50
2018-12-27T09:10:16.606Z,4.20
2018-12-27T09:12:44.657Z,3.10
2018-12-27T09:15:12.659Z,4.35
2018-12-27T09:17:40.762Z,3.62
2018-12-27T09:20:08.961Z,3.08
2018-12-27T09:22:36.956Z,3.37
2018-12-27T09:25:05.079Z,4.00
2018-12-27T09:27:33.107Z,3.80
2018-12-27T09:30:01.160Z,3.05
2018-12-27T09:32:29.557Z,3.83
2018-12-27T09:34:57.641Z,5.20
2018-12-27T09:37:25.704Z,4.42
2018-12-27T09:39:54.804Z,2.80
2018-12-27T09:42:22.884Z,3.47
2018-12-27T09:44:51.242Z,4.00
2018-12-27T09:47:19.556Z,4.00
2018-12-27T09:49:47.567Z,4.25
2018-12-27T09:52:15.701Z,3.05
2018-12-27T09:54:44.026Z,3.10
2018-12-27T09:57:13.626Z,3.83
2018-12-27T09:59:42.051Z,4.10
2018-12-27T10:02:10.054Z,4.30
2018-12-27T10:04:38.176Z,3.73
2018-12-27T10:07:06.168Z,3.13
2018-12-27T10:09:34.201Z,3.63
2018-12-27T10:12:02.251Z,4.08
2018-12-27T10:14:30.244Z,5.83
2018-12-27T10:16:58.317Z,3.87
2018-12-27T10:19:26.346Z,4.80
2018-12-27T10:21:54.384Z,3.27
2018-12-27T10:24:22.970Z,3.92
2018-12-27T10:26:51.020Z,4.80
2018-12-27T10:29:19.400Z,3.85
2018-12-27T10:31:47.836Z,3.70
2018-12-27T10:34:16.165Z,4.37
2018-12-27T10:36:44.231Z,4.30
2018-12-27T10:39:12.892Z,3.70
2018-12-27T10:41:41.108Z,4.33
2018-12-27T10:44:09.379Z,3.47
2018-12-27T10:46:37.412Z,4.30
2018-12-27T10:49:05.506Z,3.77
2018-12-27T10:51:35.524Z,4.17
2018-12-27T10:54:04.715Z,5.70
2018-12-27T10:56:33.555Z,5.43
2018-12-27T10:59:01.531Z,3.97
2018-12-27T11:01:29.871Z,4.67
2018-12-27T11:03:57.936Z,4.05
2018-12-27T11:06:26.332Z,3.67
2018-12-27T11:08:54.423Z,3.77
2018-12-27T11:11:22.838Z,4.03
2018-12-27T11:13:50.867Z,3.80
2018-12-27T11:16:19.336Z,6.20
2018-12-27T11:18:47.443Z,4.23
2018-12-27T11:21:15.916Z,4.33
2018-12-27T11:23:43.952Z,3.90
2018-12-27T11:26:12.060Z,4.53
2018-12-27T11:28:40.154Z,4.03
2018-12-27T11:31:08.227Z,4.70
2018-12-27T11:33:36.328Z,3.80
2018-12-27T11:36:05.107Z,3.73
2018-12-27T11:38:33.611Z,5.83
2018-12-27T11:41:01.673Z,4.85
2018-12-27T11:43:29.733Z,4.12
2018-12-27T11:45:59.819Z,3.67
2018-12-27T11:48:28.135Z,5.53
2018-12-27T11:50:56.565Z,5.30
2018-12-27T11:53:24.927Z,5.43
2018-12-27T11:55:52.963Z,5.00
2018-12-27T11:58:20.992Z,4.67
2018-12-27T12:00:49.001Z,5.47
2018-12-27T12:03:17.541Z,4.83
2018-12-27T12:05:45.975Z,6.20
2018-12-27T12:08:14.000Z,4.73
2018-12-27T12:10:42.093Z,5.03
2018-12-27T12:13:11.242Z,5.70
2018-12-27T12:15:39.347Z,4.93
2018-12-27T12:18:07.982Z,4.63
2018-12-27T12:20:36.204Z,5.40
2018-12-27T12:23:04.334Z,5.57
2018-12-27T12:25:32.456Z,5.73
2018-12-27T12:28:00.593Z,4.47
2018-12-27T12:30:29.074Z,5.50
2018-12-27T12:32:57.247Z,5.80
2018-12-27T12:35:27.006Z,5.93
2018-12-27T12:37:55.341Z,5.30
2018-12-27T12:40:23.393Z,5.33
2018-12-27T12:42:51.520Z,4.67
2018-12-27T12:45:19.728Z,3.93
2018-12-27T12:47:49.536Z,4.97
2018-12-27T12:50:17.987Z,5.93
2018-12-27T12:52:46.020Z,4.87
2018-12-27T12:55:14.158Z,5.60
2018-12-27T12:57:42.264Z,4.50
2018-12-27T13:00:11.627Z,4.37
2018-12-27T13:02:40.088Z,4.77
2018-12-27T13:05:08.501Z,4.93
2018-12-27T13:07:37.387Z,5.07
2018-12-27T13:10:06.694Z,5.07
2018-12-27T13:12:34.769Z,5.63
2018-12-27T13:15:04.071Z,5.57
2018-12-27T13:17:33.215Z,5.07
2018-12-27T13:20:01.261Z,4.03
2018-12-27T13:22:29.278Z,3.87
2018-12-27T13:24:57.564Z,5.07
2018-12-27T13:27:25.733Z,5.47
2018-12-27T13:29:53.784Z,4.63
2018-12-27T13:32:22.215Z,5.83
2018-12-27T13:34:50.707Z,4.93
2018-12-27T13:37:19.113Z,4.93
2018-12-27T13:39:47.190Z,5.40
2018-12-27T13:42:15.409Z,5.50
2018-12-27T13:44:43.677Z,4.70
2018-12-27T13:47:12.439Z,5.80
2018-12-27T13:49:40.726Z,4.97
2018-12-27T13:52:09.247Z,6.20
2018-12-27T13:54:37.679Z,6.97
2018-12-27T13:57:05.854Z,4.97
2018-12-27T13:59:34.281Z,5.53
2018-12-27T14:02:02.665Z,5.37
2018-12-27T14:04:30.797Z,5.63
2018-12-27T14:06:58.962Z,5.37
2018-12-27T14:09:28.228Z,5.40
2018-12-27T14:11:56.508Z,5.77
2018-12-27T14:14:24.628Z,7.77
2018-12-27T14:16:52.633Z,4.80
2018-12-27T14:19:20.982Z,6.00
2018-12-27T14:21:49.012Z,6.87
2018-12-27T14:24:17.085Z,6.30
2018-12-27T14:26:46.191Z,5.10
2018-12-27T14:29:14.656Z,5.57
2018-12-27T14:31:42.670Z,6.23
2018-12-27T14:34:10.833Z,6.03
2018-12-27T14:36:39.919Z,7.90
2018-12-27T14:39:08.222Z,11.83
2018-12-27T14:41:36.222Z,7.83
2018-12-27T14:44:04.383Z,5.60
2018-12-27T14:46:32.612Z,6.13
2018-12-27T14:49:00.816Z,7.07
2018-12-27T14:51:29.391Z,5.77
2018-12-27T14:53:58.812Z,5.10
2018-12-27T14:56:27.022Z,4.90
2018-12-27T14:58:55.141Z,5.27
2018-12-27T15:01:23.325Z,6.50
2018-12-27T15:03:51.530Z,6.77
2018-12-27T15:06:20.167Z,6.47
2018-12-27T15:08:48.676Z,5.70
2018-12-27T15:11:16.901Z,7.53
2018-12-27T15:13:44.995Z,6.50
2018-12-27T15:16:13.105Z,6.03
2018-12-27T15:18:41.314Z,5.60
2018-12-27T15:23:51.276Z,7.17
2018-12-27T15:26:19.313Z,6.93
2018-12-27T15:28:47.356Z,5.70
2018-12-27T15:31:15.501Z,5.53
2018-12-27T15:33:44.101Z,6.17
2018-12-27T15:36:12.834Z,5.10
2018-12-27T15:38:40.878Z,6.13
2018-12-27T15:41:08.934Z,7.93
2018-12-27T15:43:37.316Z,6.03
2018-12-27T15:46:05.330Z,6.27
2018-12-27T15:48:33.446Z,6.17
2018-12-27T15:51:01.568Z,7.87
2018-12-27T15:53:29.786Z,6.15
2018-12-27T15:55:57.999Z,5.37
2018-12-27T15:58:26.580Z,6.30
2018-12-27T16:00:55.048Z,6.27
2018-12-27T16:03:23.113Z,6.28
2018-12-27T16:05:51.360Z,7.75
2018-12-27T16:08:19.774Z,7.25
2018-12-27T16:10:49.066Z,6.50
2018-12-27T16:13:17.321Z,5.67
2018-12-27T16:15:45.722Z,5.40
2018-12-27T16:18:14.315Z,7.20
2018-12-27T16:20:42.341Z,6.20
2018-12-27T16:23:10.447Z,6.22
2018-12-27T16:25:38.703Z,5.08
2018-12-27T16:28:07.447Z,5.83
2018-12-27T16:30:35.895Z,5.50
2018-12-27T16:33:04.349Z,6.12
2018-12-27T16:35:32.823Z,5.65
2018-12-27T16:38:01.319Z,7.10
2018-12-27T16:40:29.712Z,6.53
2018-12-27T16:42:59.045Z,6.45
2018-12-27T16:45:27.271Z,5.58
2018-12-27T16:47:55.643Z,6.45
2018-12-27T16:50:23.948Z,5.90
2018-12-27T16:52:52.327Z,8.58
2018-12-27T16:55:20.527Z,6.67
2018-12-27T16:57:48.688Z,6.53
2018-12-27T17:00:16.938Z,5.58
2018-12-27T17:02:45.474Z,6.58
2018-12-27T17:05:13.635Z,4.92
2018-12-27T17:07:41.734Z,8.10
2018-12-27T17:10:10.486Z,6.33
2018-12-27T17:12:40.342Z,6.50
2018-12-27T17:15:08.430Z,6.78
2018-12-27T17:17:36.885Z,5.80
2018-12-27T17:20:05.308Z,6.12
2018-12-27T17:22:33.565Z,6.90
2018-12-27T17:25:02.014Z,4.90
2018-12-27T17:27:33.078Z,6.30
2018-12-27T17:30:02.336Z,5.37
2018-12-27T17:32:30.780Z,5.03
2018-12-27T17:34:59.132Z,5.75
2018-12-27T17:37:29.645Z,5.45
2018-12-27T17:39:57.979Z,5.85
2018-12-27T17:42:26.072Z,5.65
2018-12-27T17:44:54.407Z,8.85
2018-12-27T17:47:23.131Z,5.05
2018-12-27T17:49:51.351Z,5.65
2018-12-27T17:52:19.861Z,7.15
2018-12-27T17:54:49.119Z,6.83
2018-12-27T17:57:17.331Z,6.90
2018-12-27T17:59:46.694Z,7.22
2018-12-27T18:02:15.462Z,6.95
2018-12-27T18:04:43.846Z,8.23
2018-12-27T18:07:12.019Z,8.35
2018-12-27T18:09:40.842Z,11.68
2018-12-27T18:12:09.561Z,10.25
2018-12-27T18:14:37.783Z,13.45
2018-12-27T18:17:06.061Z,13.35
2018-12-27T18:19:34.413Z,10.98
2018-12-27T18:22:02.815Z,12.18
2018-12-27T18:24:31.287Z,12.15
2018-12-27T18:26:59.631Z,9.48
2018-12-27T18:29:28.186Z,8.20
2018-12-27T18:31:56.830Z,8.33
2018-12-27T18:34:25.213Z,7.70
2018-12-27T18:36:53.541Z,8.00
2018-12-27T18:39:22.107Z,7.72
2018-12-27T18:41:51.492Z,7.12
2018-12-27T18:44:19.688Z,7.30
2018-12-27T18:46:48.254Z,7.58
2018-12-27T18:49:20.670Z,6.40
2018-12-27T18:51:47.120Z,6.30
2018-12-27T18:54:15.522Z,5.75
2018-12-27T18:56:44.739Z,6.03
2018-12-27T18:59:12.969Z,6.78
2018-12-27T19:01:41.210Z,6.30
2018-12-27T19:04:11.057Z,5.62
2018-12-27T19:06:40.411Z,5.22
2018-12-27T19:09:09.752Z,5.65
2018-12-27T19:12:33.378Z,5.97
2018-12-27T19:15:07.708Z,5.85
2018-12-27T19:17:59.328Z,5.30
2018-12-27T19:20:27.505Z,5.67
2018-12-27T19:23:16.822Z,5.85
2018-12-27T19:25:45.115Z,5.08
2018-12-27T19:28:13.148Z,5.40
2018-12-27T19:30:41.826Z,7.75
2018-12-27T19:33:10.171Z,6.87
2018-12-27T19:35:38.960Z,8.23
2018-12-27T19:38:08.024Z,10.13
2018-12-27T19:40:37.627Z,7.87
2018-12-27T19:43:05.632Z,9.43
2018-12-27T19:45:34.293Z,9.85
2018-12-27T19:48:02.511Z,8.90
2018-12-27T19:50:31.591Z,8.83
2018-12-27T19:53:00.167Z,10.25
2018-12-27T19:55:29.880Z,7.67
2018-12-27T19:57:57.958Z,7.90
2018-12-27T20:00:26.050Z,8.00
2018-12-27T20:02:54.438Z,8.60
2018-12-27T20:05:22.476Z,10.23
2018-12-27T20:07:51.655Z,8.83
2018-12-27T20:10:19.831Z,7.95
2018-12-27T20:12:51.032Z,7.00
2018-12-27T20:15:19.018Z,6.97
2018-12-27T20:17:47.591Z,7.62
2018-12-27T20:20:15.671Z,6.72
2018-12-27T20:22:44.274Z,7.00
2018-12-27T20:25:12.605Z,6.70
2018-12-27T20:27:41.951Z,7.72
2018-12-27T20:30:12.119Z,7.33
2018-12-27T20:32:40.458Z,7.28
2018-12-27T20:35:08.482Z,7.70
2018-12-27T20:37:36.912Z,8.13
2018-12-27T20:40:05.633Z,9.63
2018-12-27T20:42:33.706Z,7.58
2018-12-27T20:45:01.843Z,8.00
2018-12-27T20:47:30.399Z,7.53
2018-12-27T20:49:58.557Z,10.60
2018-12-27T20:52:26.610Z,10.82
2018-12-27T20:54:54.655Z,15.78
2018-12-27T20:57:23.888Z,17.00
2018-12-27T20:59:51.962Z,11.33
2018-12-27T21:02:20.129Z,10.63
2018-12-27T21:04:48.212Z,11.00
2018-12-27T21:07:16.608Z,8.18
2018-12-27T21:09:44.946Z,8.30
2018-12-27T21:12:13.082Z,5.72
2018-12-27T21:14:41.866Z,6.95
2018-12-27T21:17:10.993Z,7.27
2018-12-27T21:19:39.047Z,7.08
2018-12-27T21:22:07.281Z,5.50
2018-12-27T21:24:35.641Z,6.95
2018-12-27T21:27:04.830Z,7.83
2018-12-27T21:29:34.303Z,5.50
2018-12-27T21:32:02.561Z,5.53
2018-12-27T21:34:31.246Z,6.53
2018-12-27T21:37:00.839Z,7.55
2018-12-27T21:39:28.892Z,7.85
2018-12-27T21:41:57.757Z,7.22
2018-12-27T21:44:25.818Z,7.17
2018-12-27T21:46:55.315Z,7.60
2018-12-27T21:49:24.053Z,7.65
2018-12-27T21:51:52.255Z,6.67
2018-12-27T21:54:20.766Z,8.20
2018-12-27T21:56:50.645Z,7.70
2018-12-27T21:59:19.230Z,8.15
2018-12-27T22:01:47.531Z,8.70
2018-12-27T22:04:15.748Z,8.25
2018-12-27T22:06:43.800Z,8.15
2018-12-27T22:09:12.002Z,8.20
2018-12-27T22:11:40.066Z,7.58
2018-12-27T22:14:08.159Z,8.85
2018-12-27T22:16:36.336Z,7.92
2018-12-27T22:19:04.419Z,6.12
2018-12-27T22:21:32.471Z,5.03
2018-12-27T22:24:01.868Z,6.70
2018-12-27T22:26:31.165Z,6.72
2018-12-27T22:28:59.259Z,5.50
2018-12-27T22:31:27.445Z,6.72
2018-12-27T22:33:56.009Z,5.87
2018-12-27T22:36:24.430Z,7.03
2018-12-27T22:38:52.607Z,5.55
2018-12-27T22:41:20.632Z,6.83
2018-12-27T22:43:49.061Z,6.70
2018-12-27T22:46:18.271Z,5.72
2018-12-27T22:48:46.544Z,5.90
2018-12-27T22:51:14.589Z,7.22
2018-12-27T22:53:43.002Z,5.75
2018-12-27T22:56:12.692Z,6.10
2018-12-27T22:58:40.877Z,6.70
2018-12-27T23:01:09.307Z,5.80
2018-12-27T23:03:37.380Z,6.12
2018-12-27T23:06:05.561Z,5.60
2018-12-27T23:08:33.770Z,5.10
2018-12-27T23:11:02.309Z,6.55
2018-12-27T23:13:31.595Z,6.00
2018-12-27T23:15:59.736Z,5.85
2018-12-27T23:18:27.817Z,6.08
2018-12-27T23:20:55.998Z,4.87
2018-12-27T23:23:24.476Z,5.00
2018-12-27T23:25:52.584Z,4.75
2018-12-27T23:28:20.741Z,3.95
2018-12-27T23:30:48.918Z,5.42
2018-12-27T23:33:17.337Z,5.05
2018-12-27T23:35:45.509Z,5.22
2018-12-27T23:38:14.374Z,4.58
2018-12-27T23:40:42.860Z,5.30
2018-12-27T23:43:11.031Z,5.05
2018-12-27T23:45:39.205Z,4.92
2018-12-27T23:48:07.430Z,4.60
2018-12-27T23:50:35.448Z,5.58
2018-12-27T23:53:03.562Z,5.03
2018-12-27T23:55:32.721Z,4.67
2018-12-27T23:58:02.054Z,5.05
